sensor_id;sensor_type;location;lat;lon;timestamp;temperature;humidity
72338;DHT22;60294;64.134;-21.862;2022-08-19T00:01:42;10.50;83.20
72338;DHT22;60294;64.134;-21.862;2022-08-19T00:04:10;10.50;83.40
72338;DHT22;60294;64.134;-21.862;2022-08-19T00:06:38;10.50;83.60
72338;DHT22;60294;64.134;-21.862;2022-08-19T00:09:06;10.50;83.50
72338;DHT22;60294;64.134;-21.862;2022-08-19T00:11:33;10.50;83.50
72338;DHT22;60294;64.134;-21.862;2022-08-19T00:14:01;10.50;83.20
72338;DHT22;60294;64.134;-21.862;2022-08-19T00:16:27;10.50;83.50
72338;DHT22;60294;64.134;-21.862;2022-08-19T00:18:54;10.50;83.20
72338;DHT22;60294;64.134;-21.862;2022-08-19T00:21:21;10.50;83.50
72338;DHT22;60294;64.134;-21.862;2022-08-19T00:23:47;10.60;83.70
72338;DHT22;60294;64.134;-21.862;2022-08-19T00:26:14;10.60;83.50
72338;DHT22;60294;64.134;-21.862;2022-08-19T00:28:40;10.60;83.40
72338;DHT22;60294;64.134;-21.862;2022-08-19T00:31:08;10.60;82.20
72338;DHT22;60294;64.134;-21.862;2022-08-19T00:33:34;10.60;82.10
72338;DHT22;60294;64.134;-21.862;2022-08-19T00:36:01;10.60;81.20
72338;DHT22;60294;64.134;-21.862;2022-08-19T00:38:27;10.60;82.00
72338;DHT22;60294;64.134;-21.862;2022-08-19T00:40:55;10.60;81.30
72338;DHT22;60294;64.134;-21.862;2022-08-19T00:43:24;10.60;81.70
72338;DHT22;60294;64.134;-21.862;2022-08-19T00:45:51;10.60;81.30
72338;DHT22;60294;64.134;-21.862;2022-08-19T00:48:18;10.60;81.40
72338;DHT22;60294;64.134;-21.862;2022-08-19T00:50:45;10.60;81.00
72338;DHT22;60294;64.134;-21.862;2022-08-19T00:53:14;10.60;80.40
72338;DHT22;60294;64.134;-21.862;2022-08-19T00:55:45;10.60;80.30
72338;DHT22;60294;64.134;-21.862;2022-08-19T00:58:15;10.60;80.20
72338;DHT22;60294;64.134;-21.862;2022-08-19T01:00:43;10.60;80.40
72338;DHT22;60294;64.134;-21.862;2022-08-19T01:03:12;10.60;80.40
72338;DHT22;60294;64.134;-21.862;2022-08-19T01:05:39;10.50;80.10
72338;DHT22;60294;64.134;-21.862;2022-08-19T01:08:07;10.50;80.10
72338;DHT22;60294;64.134;-21.862;2022-08-19T01:10:46;10.50;80.30
72338;DHT22;60294;64.134;-21.862;2022-08-19T01:13:20;10.50;81.50
72338;DHT22;60294;64.134;-21.862;2022-08-19T01:15:52;10.50;81.10
72338;DHT22;60294;64.134;-21.862;2022-08-19T01:18:20;10.40;80.70
72338;DHT22;60294;64.134;-21.862;2022-08-19T01:20:47;10.40;81.00
72338;DHT22;60294;64.134;-21.862;2022-08-19T01:23:14;10.40;80.50
72338;DHT22;60294;64.134;-21.862;2022-08-19T01:25:48;10.40;80.20
72338;DHT22;60294;64.134;-21.862;2022-08-19T01:28:26;10.40;79.90
72338;DHT22;60294;64.134;-21.862;2022-08-19T01:30:53;10.40;79.50
72338;DHT22;60294;64.134;-21.862;2022-08-19T01:33:20;10.50;79.50
72338;DHT22;60294;64.134;-21.862;2022-08-19T01:35:46;10.40;79.10
72338;DHT22;60294;64.134;-21.862;2022-08-19T01:38:36;10.40;79.30
72338;DHT22;60294;64.134;-21.862;2022-08-19T01:41:03;10.40;79.60
72338;DHT22;60294;64.134;-21.862;2022-08-19T01:43:28;10.30;79.80
72338;DHT22;60294;64.134;-21.862;2022-08-19T01:45:54;10.30;80.10
72338;DHT22;60294;64.134;-21.862;2022-08-19T01:48:20;10.30;80.10
72338;DHT22;60294;64.134;-21.862;2022-08-19T01:50:46;10.20;79.70
72338;DHT22;60294;64.134;-21.862;2022-08-19T01:53:13;10.20;79.50
72338;DHT22;60294;64.134;-21.862;2022-08-19T01:55:41;10.20;79.70
72338;DHT22;60294;64.134;-21.862;2022-08-19T01:58:12;10.10;79.50
72338;DHT22;60294;64.134;-21.862;2022-08-19T02:00:40;10.10;80.40
72338;DHT22;60294;64.134;-21.862;2022-08-19T02:03:06;10.10;80.50
72338;DHT22;60294;64.134;-21.862;2022-08-19T02:05:32;10.00;80.70
72338;DHT22;60294;64.134;-21.862;2022-08-19T02:07:58;10.00;81.20
72338;DHT22;60294;64.134;-21.862;2022-08-19T02:10:25;9.90;80.90
72338;DHT22;60294;64.134;-21.862;2022-08-19T02:12:51;9.90;80.70
72338;DHT22;60294;64.134;-21.862;2022-08-19T02:15:18;9.90;80.90
72338;DHT22;60294;64.134;-21.862;2022-08-19T02:17:45;9.90;80.90
72338;DHT22;60294;64.134;-21.862;2022-08-19T02:20:12;9.90;80.80
72338;DHT22;60294;64.134;-21.862;2022-08-19T02:22:39;9.80;81.10
72338;DHT22;60294;64.134;-21.862;2022-08-19T02:25:08;9.80;80.40
72338;DHT22;60294;64.134;-21.862;2022-08-19T02:27:33;9.80;80.70
72338;DHT22;60294;64.134;-21.862;2022-08-19T02:29:59;9.70;80.90
72338;DHT22;60294;64.134;-21.862;2022-08-19T02:32:26;9.70;80.90
72338;DHT22;60294;64.134;-21.862;2022-08-19T02:34:52;9.70;80.90
72338;DHT22;60294;64.134;-21.862;2022-08-19T02:37:18;9.70;80.60
72338;DHT22;60294;64.134;-21.862;2022-08-19T02:40:03;9.60;80.00
72338;DHT22;60294;64.134;-21.862;2022-08-19T02:42:29;9.60;80.20
72338;DHT22;60294;64.134;-21.862;2022-08-19T02:44:55;9.60;80.60
72338;DHT22;60294;64.134;-21.862;2022-08-19T02:47:21;9.60;80.60
72338;DHT22;60294;64.134;-21.862;2022-08-19T02:49:47;9.60;81.00
72338;DHT22;60294;64.134;-21.862;2022-08-19T02:52:15;9.50;81.10
72338;DHT22;60294;64.134;-21.862;2022-08-19T02:54:41;9.50;81.60
72338;DHT22;60294;64.134;-21.862;2022-08-19T02:57:07;9.50;81.20
72338;DHT22;60294;64.134;-21.862;2022-08-19T02:59:34;9.50;81.50
72338;DHT22;60294;64.134;-21.862;2022-08-19T03:01:59;9.50;81.20
72338;DHT22;60294;64.134;-21.862;2022-08-19T03:04:25;9.50;81.20
72338;DHT22;60294;64.134;-21.862;2022-08-19T03:06:52;9.50;81.00
72338;DHT22;60294;64.134;-21.862;2022-08-19T03:09:19;9.60;81.20
72338;DHT22;60294;64.134;-21.862;2022-08-19T03:11:45;9.50;81.20
72338;DHT22;60294;64.134;-21.862;2022-08-19T03:14:12;9.60;81.50
72338;DHT22;60294;64.134;-21.862;2022-08-19T03:16:48;9.50;81.40
72338;DHT22;60294;64.134;-21.862;2022-08-19T03:19:16;9.60;81.20
72338;DHT22;60294;64.134;-21.862;2022-08-19T03:21:43;9.60;81.40
72338;DHT22;60294;64.134;-21.862;2022-08-19T03:24:13;9.60;80.80
72338;DHT22;60294;64.134;-21.862;2022-08-19T03:26:45;9.70;80.80
72338;DHT22;60294;64.134;-21.862;2022-08-19T03:29:11;9.70;80.90
72338;DHT22;60294;64.134;-21.862;2022-08-19T03:31:39;9.70;81.20
72338;DHT22;60294;64.134;-21.862;2022-08-19T03:34:05;9.80;81.20
72338;DHT22;60294;64.134;-21.862;2022-08-19T03:36:31;9.80;80.90
72338;DHT22;60294;64.134;-21.862;2022-08-19T03:38:59;9.80;80.70
72338;DHT22;60294;64.134;-21.862;2022-08-19T03:41:28;9.80;80.40
72338;DHT22;60294;64.134;-21.862;2022-08-19T03:43:56;9.80;80.70
72338;DHT22;60294;64.134;-21.862;2022-08-19T03:46:26;9.90;81.00
72338;DHT22;60294;64.134;-21.862;2022-08-19T03:48:54;9.90;81.10
72338;DHT22;60294;64.134;-21.862;2022-08-19T03:51:27;9.90;81.30
72338;DHT22;60294;64.134;-21.862;2022-08-19T03:53:55;9.90;80.90
72338;DHT22;60294;64.134;-21.862;2022-08-19T03:56:22;10.00;80.80
72338;DHT22;60294;64.134;-21.862;2022-08-19T03:58:48;10.00;80.30
72338;DHT22;60294;64.134;-21.862;2022-08-19T04:01:20;10.00;80.50
72338;DHT22;60294;64.134;-21.862;2022-08-19T04:03:46;9.90;80.70
72338;DHT22;60294;64.134;-21.862;2022-08-19T04:06:18;10.00;81.00
72338;DHT22;60294;64.134;-21.862;2022-08-19T04:08:47;10.10;80.70
72338;DHT22;60294;64.134;-21.862;2022-08-19T04:11:16;10.10;80.20
72338;DHT22;60294;64.134;-21.862;2022-08-19T04:13:42;10.00;80.00
72338;DHT22;60294;64.134;-21.862;2022-08-19T04:16:10;10.10;79.50
72338;DHT22;60294;64.134;-21.862;2022-08-19T04:18:38;10.00;78.80
72338;DHT22;60294;64.134;-21.862;2022-08-19T04:21:05;9.90;79.60
72338;DHT22;60294;64.134;-21.862;2022-08-19T04:23:32;9.90;79.90
72338;DHT22;60294;64.134;-21.862;2022-08-19T04:25:59;9.90;80.40
72338;DHT22;60294;64.134;-21.862;2022-08-19T04:28:25;9.90;80.60
72338;DHT22;60294;64.134;-21.862;2022-08-19T04:30:53;9.90;81.30
72338;DHT22;60294;64.134;-21.862;2022-08-19T04:33:22;9.90;81.50
72338;DHT22;60294;64.134;-21.862;2022-08-19T04:35:50;9.80;81.90
72338;DHT22;60294;64.134;-21.862;2022-08-19T04:38:19;9.80;82.10
72338;DHT22;60294;64.134;-21.862;2022-08-19T04:40:50;9.90;81.90
72338;DHT22;60294;64.134;-21.862;2022-08-19T04:43:36;9.80;81.70
72338;DHT22;60294;64.134;-21.862;2022-08-19T04:46:10;9.80;82.00
72338;DHT22;60294;64.134;-21.862;2022-08-19T04:48:37;9.80;82.60
72338;DHT22;60294;64.134;-21.862;2022-08-19T04:51:07;9.70;83.40
72338;DHT22;60294;64.134;-21.862;2022-08-19T04:53:35;9.70;83.60
72338;DHT22;60294;64.134;-21.862;2022-08-19T04:56:05;9.70;83.60
72338;DHT22;60294;64.134;-21.862;2022-08-19T04:58:32;9.70;83.90
72338;DHT22;60294;64.134;-21.862;2022-08-19T05:00:58;9.60;84.10
72338;DHT22;60294;64.134;-21.862;2022-08-19T05:03:26;9.60;84.30
72338;DHT22;60294;64.134;-21.862;2022-08-19T05:05:52;9.60;84.80
72338;DHT22;60294;64.134;-21.862;2022-08-19T05:08:20;9.60;84.60
72338;DHT22;60294;64.134;-21.862;2022-08-19T05:10:48;9.50;85.10
72338;DHT22;60294;64.134;-21.862;2022-08-19T05:13:16;9.50;85.00
72338;DHT22;60294;64.134;-21.862;2022-08-19T05:15:44;9.50;85.50
72338;DHT22;60294;64.134;-21.862;2022-08-19T05:18:10;9.50;85.40
72338;DHT22;60294;64.134;-21.862;2022-08-19T05:20:54;9.40;85.90
72338;DHT22;60294;64.134;-21.862;2022-08-19T05:23:39;9.50;85.80
72338;DHT22;60294;64.134;-21.862;2022-08-19T05:26:05;9.50;85.30
72338;DHT22;60294;64.134;-21.862;2022-08-19T05:28:31;9.40;85.90
72338;DHT22;60294;64.134;-21.862;2022-08-19T05:30:56;9.40;86.20
72338;DHT22;60294;64.134;-21.862;2022-08-19T05:33:22;9.40;86.60
72338;DHT22;60294;64.134;-21.862;2022-08-19T05:35:50;9.40;87.30
72338;DHT22;60294;64.134;-21.862;2022-08-19T05:38:17;9.30;87.50
72338;DHT22;60294;64.134;-21.862;2022-08-19T05:40:43;9.30;88.10
72338;DHT22;60294;64.134;-21.862;2022-08-19T05:43:12;9.20;88.40
72338;DHT22;60294;64.134;-21.862;2022-08-19T05:45:42;9.20;88.80
72338;DHT22;60294;64.134;-21.862;2022-08-19T05:48:11;9.20;89.00
72338;DHT22;60294;64.134;-21.862;2022-08-19T05:50:41;9.10;89.60
72338;DHT22;60294;64.134;-21.862;2022-08-19T05:53:08;9.10;89.80
72338;DHT22;60294;64.134;-21.862;2022-08-19T05:55:34;9.10;90.10
72338;DHT22;60294;64.134;-21.862;2022-08-19T05:58:00;9.20;90.20
72338;DHT22;60294;64.134;-21.862;2022-08-19T06:00:27;9.10;90.20
72338;DHT22;60294;64.134;-21.862;2022-08-19T06:02:54;9.10;90.30
72338;DHT22;60294;64.134;-21.862;2022-08-19T06:05:22;9.10;90.30
72338;DHT22;60294;64.134;-21.862;2022-08-19T06:07:47;9.10;91.20
72338;DHT22;60294;64.134;-21.862;2022-08-19T06:10:14;9.10;90.80
72338;DHT22;60294;64.134;-21.862;2022-08-19T06:12:40;9.10;90.70
72338;DHT22;60294;64.134;-21.862;2022-08-19T06:15:09;9.10;91.00
72338;DHT22;60294;64.134;-21.862;2022-08-19T06:17:35;9.10;91.20
72338;DHT22;60294;64.134;-21.862;2022-08-19T06:20:09;9.00;90.90
72338;DHT22;60294;64.134;-21.862;2022-08-19T06:22:42;9.10;91.30
72338;DHT22;60294;64.134;-21.862;2022-08-19T06:25:10;9.10;90.90
72338;DHT22;60294;64.134;-21.862;2022-08-19T06:27:37;9.10;91.20
72338;DHT22;60294;64.134;-21.862;2022-08-19T06:30:04;9.10;91.50
72338;DHT22;60294;64.134;-21.862;2022-08-19T06:32:30;9.10;91.30
72338;DHT22;60294;64.134;-21.862;2022-08-19T06:34:56;9.10;91.60
72338;DHT22;60294;64.134;-21.862;2022-08-19T06:37:22;9.10;91.50
72338;DHT22;60294;64.134;-21.862;2022-08-19T06:39:49;9.10;91.40
72338;DHT22;60294;64.134;-21.862;2022-08-19T06:42:15;9.10;91.20
72338;DHT22;60294;64.134;-21.862;2022-08-19T06:44:45;9.10;91.30
72338;DHT22;60294;64.134;-21.862;2022-08-19T06:47:14;9.10;91.20
72338;DHT22;60294;64.134;-21.862;2022-08-19T06:49:41;9.10;91.30
72338;DHT22;60294;64.134;-21.862;2022-08-19T06:52:09;9.10;91.10
72338;DHT22;60294;64.134;-21.862;2022-08-19T06:54:39;9.10;91.10
72338;DHT22;60294;64.134;-21.862;2022-08-19T06:57:05;9.10;91.40
72338;DHT22;60294;64.134;-21.862;2022-08-19T06:59:32;9.10;91.40
72338;DHT22;60294;64.134;-21.862;2022-08-19T07:02:01;9.20;90.90
72338;DHT22;60294;64.134;-21.862;2022-08-19T07:04:31;9.20;90.50
72338;DHT22;60294;64.134;-21.862;2022-08-19T07:07:11;9.20;90.10
72338;DHT22;60294;64.134;-21.862;2022-08-19T07:09:40;9.30;90.10
72338;DHT22;60294;64.134;-21.862;2022-08-19T07:12:07;9.40;89.90
72338;DHT22;60294;64.134;-21.862;2022-08-19T07:14:36;9.40;89.60
72338;DHT22;60294;64.134;-21.862;2022-08-19T07:17:07;9.50;90.10
72338;DHT22;60294;64.134;-21.862;2022-08-19T07:19:34;9.50;89.80
72338;DHT22;60294;64.134;-21.862;2022-08-19T07:22:02;9.50;89.80
72338;DHT22;60294;64.134;-21.862;2022-08-19T07:24:29;9.60;89.70
72338;DHT22;60294;64.134;-21.862;2022-08-19T07:26:59;9.60;89.70
72338;DHT22;60294;64.134;-21.862;2022-08-19T07:29:30;9.70;89.00
72338;DHT22;60294;64.134;-21.862;2022-08-19T07:31:57;9.70;88.40
72338;DHT22;60294;64.134;-21.862;2022-08-19T07:34:25;9.80;88.30
72338;DHT22;60294;64.134;-21.862;2022-08-19T07:36:52;9.90;87.20
72338;DHT22;60294;64.134;-21.862;2022-08-19T07:39:22;9.90;87.30
72338;DHT22;60294;64.134;-21.862;2022-08-19T07:41:49;10.00;87.00
72338;DHT22;60294;64.134;-21.862;2022-08-19T07:44:16;9.90;87.30
72338;DHT22;60294;64.134;-21.862;2022-08-19T07:46:45;10.00;86.80
72338;DHT22;60294;64.134;-21.862;2022-08-19T07:49:13;10.00;86.70
72338;DHT22;60294;64.134;-21.862;2022-08-19T07:51:50;9.90;86.70
72338;DHT22;60294;64.134;-21.862;2022-08-19T07:54:17;9.90;86.40
72338;DHT22;60294;64.134;-21.862;2022-08-19T07:56:43;10.00;86.10
72338;DHT22;60294;64.134;-21.862;2022-08-19T07:59:09;10.00;85.70
72338;DHT22;60294;64.134;-21.862;2022-08-19T08:01:35;10.10;85.90
72338;DHT22;60294;64.134;-21.862;2022-08-19T08:04:02;10.10;85.40
72338;DHT22;60294;64.134;-21.862;2022-08-19T08:06:46;10.10;85.60
72338;DHT22;60294;64.134;-21.862;2022-08-19T08:09:34;10.10;85.30
72338;DHT22;60294;64.134;-21.862;2022-08-19T08:12:13;10.10;85.40
72338;DHT22;60294;64.134;-21.862;2022-08-19T08:14:44;10.10;84.70
72338;DHT22;60294;64.134;-21.862;2022-08-19T08:17:12;10.20;84.70
72338;DHT22;60294;64.134;-21.862;2022-08-19T08:19:39;10.10;83.50
72338;DHT22;60294;64.134;-21.862;2022-08-19T08:22:07;10.10;84.30
72338;DHT22;60294;64.134;-21.862;2022-08-19T08:24:34;10.10;83.90
72338;DHT22;60294;64.134;-21.862;2022-08-19T08:27:01;10.10;84.40
72338;DHT22;60294;64.134;-21.862;2022-08-19T08:29:30;10.10;84.10
72338;DHT22;60294;64.134;-21.862;2022-08-19T08:31:56;10.10;84.70
72338;DHT22;60294;64.134;-21.862;2022-08-19T08:34:23;10.20;85.00
72338;DHT22;60294;64.134;-21.862;2022-08-19T08:36:49;10.20;85.50
72338;DHT22;60294;64.134;-21.862;2022-08-19T08:39:19;10.20;85.60
72338;DHT22;60294;64.134;-21.862;2022-08-19T08:42:01;10.10;85.60
72338;DHT22;60294;64.134;-21.862;2022-08-19T08:47:02;10.30;85.00
72338;DHT22;60294;64.134;-21.862;2022-08-19T08:49:38;10.30;84.70
72338;DHT22;60294;64.134;-21.862;2022-08-19T08:52:11;10.40;84.90
72338;DHT22;60294;64.134;-21.862;2022-08-19T08:54:43;10.50;83.60
72338;DHT22;60294;64.134;-21.862;2022-08-19T08:57:35;10.70;83.40
72338;DHT22;60294;64.134;-21.862;2022-08-19T09:00:08;10.70;82.70
72338;DHT22;60294;64.134;-21.862;2022-08-19T09:02:35;10.70;81.50
72338;DHT22;60294;64.134;-21.862;2022-08-19T09:05:01;10.80;82.10
72338;DHT22;60294;64.134;-21.862;2022-08-19T09:15:35;11.10;80.60
72338;DHT22;60294;64.134;-21.862;2022-08-19T09:18:03;11.00;80.70
72338;DHT22;60294;64.134;-21.862;2022-08-19T09:20:29;11.10;80.70
72338;DHT22;60294;64.134;-21.862;2022-08-19T09:22:56;11.10;79.70
72338;DHT22;60294;64.134;-21.862;2022-08-19T09:25:24;11.10;79.60
72338;DHT22;60294;64.134;-21.862;2022-08-19T09:27:52;11.10;80.20
72338;DHT22;60294;64.134;-21.862;2022-08-19T09:30:24;11.10;79.30
72338;DHT22;60294;64.134;-21.862;2022-08-19T09:32:51;11.20;79.50
72338;DHT22;60294;64.134;-21.862;2022-08-19T09:35:27;11.20;78.90
72338;DHT22;60294;64.134;-21.862;2022-08-19T09:37:55;11.40;80.10
72338;DHT22;60294;64.134;-21.862;2022-08-19T09:40:23;11.40;78.70
72338;DHT22;60294;64.134;-21.862;2022-08-19T09:42:49;11.50;77.00
72338;DHT22;60294;64.134;-21.862;2022-08-19T09:45:16;11.60;77.20
72338;DHT22;60294;64.134;-21.862;2022-08-19T09:47:43;11.70;75.50
72338;DHT22;60294;64.134;-21.862;2022-08-19T09:50:11;11.70;75.50
72338;DHT22;60294;64.134;-21.862;2022-08-19T09:52:37;12.00;75.50
72338;DHT22;60294;64.134;-21.862;2022-08-19T09:55:05;11.70;75.80
72338;DHT22;60294;64.134;-21.862;2022-08-19T09:57:31;11.70;76.50
72338;DHT22;60294;64.134;-21.862;2022-08-19T09:59:57;11.70;77.00
72338;DHT22;60294;64.134;-21.862;2022-08-19T10:02:23;11.90;77.30
72338;DHT22;60294;64.134;-21.862;2022-08-19T10:04:50;12.00;76.30
72338;DHT22;60294;64.134;-21.862;2022-08-19T10:07:35;12.10;74.90
72338;DHT22;60294;64.134;-21.862;2022-08-19T10:10:02;12.00;74.60
72338;DHT22;60294;64.134;-21.862;2022-08-19T10:12:28;12.10;74.80
72338;DHT22;60294;64.134;-21.862;2022-08-19T10:14:53;12.20;74.90
72338;DHT22;60294;64.134;-21.862;2022-08-19T10:17:19;12.10;75.00
72338;DHT22;60294;64.134;-21.862;2022-08-19T10:19:45;12.20;74.90
72338;DHT22;60294;64.134;-21.862;2022-08-19T10:22:12;12.40;74.50
72338;DHT22;60294;64.134;-21.862;2022-08-19T10:24:39;12.40;73.10
72338;DHT22;60294;64.134;-21.862;2022-08-19T10:27:06;12.40;72.80
72338;DHT22;60294;64.134;-21.862;2022-08-19T10:29:32;12.40;73.10
72338;DHT22;60294;64.134;-21.862;2022-08-19T10:32:05;12.40;72.10
72338;DHT22;60294;64.134;-21.862;2022-08-19T10:34:32;12.60;72.00
72338;DHT22;60294;64.134;-21.862;2022-08-19T10:36:59;12.70;72.20
72338;DHT22;60294;64.134;-21.862;2022-08-19T10:39:26;12.60;71.70
72338;DHT22;60294;64.134;-21.862;2022-08-19T10:41:55;12.30;72.50
72338;DHT22;60294;64.134;-21.862;2022-08-19T10:44:22;12.50;73.20
72338;DHT22;60294;64.134;-21.862;2022-08-19T10:46:49;12.80;71.90
72338;DHT22;60294;64.134;-21.862;2022-08-19T10:49:15;12.50;71.90
72338;DHT22;60294;64.134;-21.862;2022-08-19T10:51:41;12.60;72.30
72338;DHT22;60294;64.134;-21.862;2022-08-19T10:54:27;12.60;72.60
72338;DHT22;60294;64.134;-21.862;2022-08-19T10:57:14;12.60;73.50
72338;DHT22;60294;64.134;-21.862;2022-08-19T10:59:40;12.60;73.50
72338;DHT22;60294;64.134;-21.862;2022-08-19T11:02:08;12.70;73.10
72338;DHT22;60294;64.134;-21.862;2022-08-19T11:04:36;13.00;73.10
72338;DHT22;60294;64.134;-21.862;2022-08-19T11:07:03;12.80;73.80
72338;DHT22;60294;64.134;-21.862;2022-08-19T11:09:30;13.10;72.40
72338;DHT22;60294;64.134;-21.862;2022-08-19T11:11:57;13.30;71.50
72338;DHT22;60294;64.134;-21.862;2022-08-19T11:14:23;13.30;71.00
72338;DHT22;60294;64.134;-21.862;2022-08-19T11:16:52;13.50;71.40
72338;DHT22;60294;64.134;-21.862;2022-08-19T11:19:21;13.30;70.40
72338;DHT22;60294;64.134;-21.862;2022-08-19T11:21:50;13.00;69.60
72338;DHT22;60294;64.134;-21.862;2022-08-19T11:24:20;13.10;69.60
72338;DHT22;60294;64.134;-21.862;2022-08-19T11:26:47;13.20;67.20
72338;DHT22;60294;64.134;-21.862;2022-08-19T11:29:21;13.10;68.40
72338;DHT22;60294;64.134;-21.862;2022-08-19T11:31:51;13.50;67.80
72338;DHT22;60294;64.134;-21.862;2022-08-19T11:34:24;13.60;66.70
72338;DHT22;60294;64.134;-21.862;2022-08-19T11:36:51;13.80;67.10
72338;DHT22;60294;64.134;-21.862;2022-08-19T11:39:19;14.10;66.20
72338;DHT22;60294;64.134;-21.862;2022-08-19T11:41:46;14.50;64.70
72338;DHT22;60294;64.134;-21.862;2022-08-19T11:44:12;14.80;64.80
72338;DHT22;60294;64.134;-21.862;2022-08-19T11:46:39;15.10;63.00
72338;DHT22;60294;64.134;-21.862;2022-08-19T11:49:07;15.10;61.20
72338;DHT22;60294;64.134;-21.862;2022-08-19T11:51:35;15.00;60.90
72338;DHT22;60294;64.134;-21.862;2022-08-19T11:54:03;15.10;60.80
72338;DHT22;60294;64.134;-21.862;2022-08-19T11:56:30;14.90;61.20
72338;DHT22;60294;64.134;-21.862;2022-08-19T11:58:56;15.40;60.90
72338;DHT22;60294;64.134;-21.862;2022-08-19T12:01:26;15.80;61.00
72338;DHT22;60294;64.134;-21.862;2022-08-19T12:03:53;16.10;61.00
72338;DHT22;60294;64.134;-21.862;2022-08-19T12:06:25;16.20;59.60
72338;DHT22;60294;64.134;-21.862;2022-08-19T12:08:55;15.60;60.50
72338;DHT22;60294;64.134;-21.862;2022-08-19T12:11:22;15.40;61.60
72338;DHT22;60294;64.134;-21.862;2022-08-19T12:13:49;15.60;59.80
72338;DHT22;60294;64.134;-21.862;2022-08-19T12:16:20;15.70;60.40
72338;DHT22;60294;64.134;-21.862;2022-08-19T12:18:46;16.10;59.50
72338;DHT22;60294;64.134;-21.862;2022-08-19T12:21:14;16.30;58.90
72338;DHT22;60294;64.134;-21.862;2022-08-19T12:23:41;16.10;57.00
72338;DHT22;60294;64.134;-21.862;2022-08-19T12:26:09;16.30;58.70
72338;DHT22;60294;64.134;-21.862;2022-08-19T12:28:36;16.50;58.10
72338;DHT22;60294;64.134;-21.862;2022-08-19T12:31:02;16.80;57.40
72338;DHT22;60294;64.134;-21.862;2022-08-19T12:33:28;16.90;57.20
72338;DHT22;60294;64.134;-21.862;2022-08-19T12:35:54;16.90;56.70
72338;DHT22;60294;64.134;-21.862;2022-08-19T12:38:20;17.00;54.60
72338;DHT22;60294;64.134;-21.862;2022-08-19T12:40:49;16.90;56.00
72338;DHT22;60294;64.134;-21.862;2022-08-19T12:43:18;17.40;54.80
72338;DHT22;60294;64.134;-21.862;2022-08-19T12:45:45;17.50;52.80
72338;DHT22;60294;64.134;-21.862;2022-08-19T12:48:12;17.60;53.70
72338;DHT22;60294;64.134;-21.862;2022-08-19T12:50:42;17.60;53.70
72338;DHT22;60294;64.134;-21.862;2022-08-19T12:53:08;17.60;52.80
72338;DHT22;60294;64.134;-21.862;2022-08-19T12:55:34;17.40;52.90
72338;DHT22;60294;64.134;-21.862;2022-08-19T12:58:00;17.40;53.40
72338;DHT22;60294;64.134;-21.862;2022-08-19T13:00:29;17.40;52.70
72338;DHT22;60294;64.134;-21.862;2022-08-19T13:02:58;17.20;54.00
72338;DHT22;60294;64.134;-21.862;2022-08-19T13:05:27;17.30;51.50
72338;DHT22;60294;64.134;-21.862;2022-08-19T13:07:54;17.00;54.50
72338;DHT22;60294;64.134;-21.862;2022-08-19T13:10:23;17.10;53.40
72338;DHT22;60294;64.134;-21.862;2022-08-19T13:12:51;17.10;54.00
72338;DHT22;60294;64.134;-21.862;2022-08-19T13:15:19;16.90;54.00
72338;DHT22;60294;64.134;-21.862;2022-08-19T13:17:48;16.20;55.30
72338;DHT22;60294;64.134;-21.862;2022-08-19T13:20:15;16.10;56.30
72338;DHT22;60294;64.134;-21.862;2022-08-19T13:22:41;16.10;56.10
72338;DHT22;60294;64.134;-21.862;2022-08-19T13:25:08;15.90;56.90
72338;DHT22;60294;64.134;-21.862;2022-08-19T13:27:35;15.80;57.90
72338;DHT22;60294;64.134;-21.862;2022-08-19T13:30:02;15.90;58.60
72338;DHT22;60294;64.134;-21.862;2022-08-19T13:32:47;15.90;58.50
72338;DHT22;60294;64.134;-21.862;2022-08-19T13:35:31;15.90;60.60
72338;DHT22;60294;64.134;-21.862;2022-08-19T13:37:57;16.50;59.90
72338;DHT22;60294;64.134;-21.862;2022-08-19T13:40:24;16.60;60.80
72338;DHT22;60294;64.134;-21.862;2022-08-19T13:42:54;16.90;60.60
72338;DHT22;60294;64.134;-21.862;2022-08-19T13:45:22;16.90;62.00
72338;DHT22;60294;64.134;-21.862;2022-08-19T13:47:52;16.90;60.50
72338;DHT22;60294;64.134;-21.862;2022-08-19T13:50:21;16.30;64.40
72338;DHT22;60294;64.134;-21.862;2022-08-19T13:52:47;16.20;63.90
72338;DHT22;60294;64.134;-21.862;2022-08-19T13:55:14;15.90;66.20
72338;DHT22;60294;64.134;-21.862;2022-08-19T13:57:41;16.40;66.10
72338;DHT22;60294;64.134;-21.862;2022-08-19T14:00:10;17.40;62.20
72338;DHT22;60294;64.134;-21.862;2022-08-19T14:02:38;18.10;57.20
72338;DHT22;60294;64.134;-21.862;2022-08-19T14:05:06;18.50;55.10
72338;DHT22;60294;64.134;-21.862;2022-08-19T14:07:32;18.70;55.40
72338;DHT22;60294;64.134;-21.862;2022-08-19T14:09:58;18.40;54.70
72338;DHT22;60294;64.134;-21.862;2022-08-19T14:12:24;18.10;55.80
72338;DHT22;60294;64.134;-21.862;2022-08-19T14:14:49;18.10;55.70
72338;DHT22;60294;64.134;-21.862;2022-08-19T14:17:15;18.70;55.40
72338;DHT22;60294;64.134;-21.862;2022-08-19T14:19:42;19.10;55.10
72338;DHT22;60294;64.134;-21.862;2022-08-19T14:22:08;19.40;53.00
72338;DHT22;60294;64.134;-21.862;2022-08-19T14:24:37;19.00;56.40
72338;DHT22;60294;64.134;-21.862;2022-08-19T14:27:06;18.70;56.90
72338;DHT22;60294;64.134;-21.862;2022-08-19T14:29:33;18.50;56.70
72338;DHT22;60294;64.134;-21.862;2022-08-19T14:31:59;18.60;55.10
72338;DHT22;60294;64.134;-21.862;2022-08-19T14:34:26;18.30;55.80
72338;DHT22;60294;64.134;-21.862;2022-08-19T14:36:52;18.00;56.20
72338;DHT22;60294;64.134;-21.862;2022-08-19T14:39:18;17.60;57.70
72338;DHT22;60294;64.134;-21.862;2022-08-19T14:41:44;17.70;58.40
72338;DHT22;60294;64.134;-21.862;2022-08-19T14:44:13;17.50;58.60
72338;DHT22;60294;64.134;-21.862;2022-08-19T14:46:39;17.70;58.20
72338;DHT22;60294;64.134;-21.862;2022-08-19T14:49:06;17.80;57.30
72338;DHT22;60294;64.134;-21.862;2022-08-19T14:51:33;17.60;56.40
72338;DHT22;60294;64.134;-21.862;2022-08-19T14:53:59;17.60;56.80
72338;DHT22;60294;64.134;-21.862;2022-08-19T14:56:27;17.60;56.30
72338;DHT22;60294;64.134;-21.862;2022-08-19T14:58:54;17.00;58.50
72338;DHT22;60294;64.134;-21.862;2022-08-19T15:01:21;17.10;59.10
72338;DHT22;60294;64.134;-21.862;2022-08-19T15:03:48;16.70;61.60
72338;DHT22;60294;64.134;-21.862;2022-08-19T15:06:15;16.10;63.60
72338;DHT22;60294;64.134;-21.862;2022-08-19T15:08:41;15.70;65.90
72338;DHT22;60294;64.134;-21.862;2022-08-19T15:11:17;15.70;66.20
72338;DHT22;60294;64.134;-21.862;2022-08-19T15:13:45;15.80;66.10
72338;DHT22;60294;64.134;-21.862;2022-08-19T15:16:12;15.80;66.70
72338;DHT22;60294;64.134;-21.862;2022-08-19T15:18:41;15.70;66.30
72338;DHT22;60294;64.134;-21.862;2022-08-19T15:21:11;15.40;67.30
72338;DHT22;60294;64.134;-21.862;2022-08-19T15:23:44;15.50;66.80
72338;DHT22;60294;64.134;-21.862;2022-08-19T15:26:11;15.30;67.10